sensor_id;sensor_type;location;lat;lon;timestamp;P1;durP1;ratioP1;P2;durP2;ratioP2
19505;SDS011;9894;50.852;-0.140;2022-10-01T00:00:23;1.02;;;0.50;;
19505;SDS011;9894;50.852;-0.140;2022-10-01T00:02:51;0.20;;;0.20;;
19505;SDS011;9894;50.852;-0.140;2022-10-01T00:05:18;0.22;;;0.22;;
19505;SDS011;9894;50.852;-0.140;2022-10-01T00:07:45;0.30;;;0.30;;
19505;SDS011;9894;50.852;-0.140;2022-10-01T00:10:12;0.30;;;0.30;;
19505;SDS011;9894;50.852;-0.140;2022-10-01T00:12:41;1.42;;;0.32;;
19505;SDS011;9894;50.852;-0.140;2022-10-01T00:15:10;0.30;;;0.30;;
19505;SDS011;9894;50.852;-0.140;2022-10-01T00:17:37;0.50;;;0.50;;
19505;SDS011;9894;50.852;-0.140;2022-10-01T00:20:04;1.17;;;0.65;;
19505;SDS011;9894;50.852;-0.140;2022-10-01T00:22:31;0.20;;;0.20;;
19505;SDS011;9894;50.852;-0.140;2022-10-01T00:24:57;0.20;;;0.20;;
19505;SDS011;9894;50.852;-0.140;2022-10-01T00:27:24;0.25;;;0.25;;
19505;SDS011;9894;50.852;-0.140;2022-10-01T00:29:50;0.57;;;0.57;;
19505;SDS011;9894;50.852;-0.140;2022-10-01T00:32:16;0.55;;;0.40;;
19505;SDS011;9894;50.852;-0.140;2022-10-01T00:34:43;0.20;;;0.20;;
19505;SDS011;9894;50.852;-0.140;2022-10-01T00:37:09;0.73;;;0.73;;
19505;SDS011;9894;50.852;-0.140;2022-10-01T00:39:35;0.45;;;0.45;;
19505;SDS011;9894;50.852;-0.140;2022-10-01T00:42:23;0.95;;;0.60;;
19505;SDS011;9894;50.852;-0.140;2022-10-01T00:44:48;0.40;;;0.40;;
19505;SDS011;9894;50.852;-0.140;2022-10-01T00:49:47;14.95;;;1.65;;
19505;SDS011;9894;50.852;-0.140;2022-10-01T00:52:15;2.15;;;1.38;;
19505;SDS011;9894;50.852;-0.140;2022-10-01T00:54:43;1.95;;;1.20;;
19505;SDS011;9894;50.852;-0.140;2022-10-01T00:57:11;0.73;;;0.63;;
19505;SDS011;9894;50.852;-0.140;2022-10-01T01:03:37;1.42;;;0.93;;
19505;SDS011;9894;50.852;-0.140;2022-10-01T01:09:07;0.20;;;0.20;;
19505;SDS011;9894;50.852;-0.140;2022-10-01T01:14:17;0.63;;;0.45;;
19505;SDS011;9894;50.852;-0.140;2022-10-01T01:16:48;0.45;;;0.45;;
19505;SDS011;9894;50.852;-0.140;2022-10-01T01:21:46;0.30;;;0.30;;
19505;SDS011;9894;50.852;-0.140;2022-10-01T01:24:23;1.88;;;1.52;;
19505;SDS011;9894;50.852;-0.140;2022-10-01T01:27:00;0.38;;;0.35;;
19505;SDS011;9894;50.852;-0.140;2022-10-01T01:31:57;0.90;;;0.85;;
19505;SDS011;9894;50.852;-0.140;2022-10-01T01:34:26;2.42;;;0.85;;
19505;SDS011;9894;50.852;-0.140;2022-10-01T01:36:58;0.50;;;0.50;;
19505;SDS011;9894;50.852;-0.140;2022-10-01T01:39:26;1.73;;;1.10;;
19505;SDS011;9894;50.852;-0.140;2022-10-01T01:41:55;0.65;;;0.45;;
19505;SDS011;9894;50.852;-0.140;2022-10-01T01:44:25;1.15;;;0.95;;
19505;SDS011;9894;50.852;-0.140;2022-10-01T01:46:53;0.30;;;0.30;;
19505;SDS011;9894;50.852;-0.140;2022-10-01T01:49:20;1.33;;;1.23;;
19505;SDS011;9894;50.852;-0.140;2022-10-01T01:54:26;0.57;;;0.57;;
19505;SDS011;9894;50.852;-0.140;2022-10-01T01:56:54;0.30;;;0.30;;
19505;SDS011;9894;50.852;-0.140;2022-10-01T01:59:20;0.65;;;0.63;;
19505;SDS011;9894;50.852;-0.140;2022-10-01T02:01:46;0.60;;;0.60;;
19505;SDS011;9894;50.852;-0.140;2022-10-01T02:14:46;0.57;;;0.55;;
19505;SDS011;9894;50.852;-0.140;2022-10-01T02:19:46;0.10;;;0.10;;
19505;SDS011;9894;50.852;-0.140;2022-10-01T02:22:19;1.88;;;0.93;;
19505;SDS011;9894;50.852;-0.140;2022-10-01T02:24:52;0.43;;;0.35;;
19505;SDS011;9894;50.852;-0.140;2022-10-01T02:29:50;2.63;;;1.65;;
19505;SDS011;9894;50.852;-0.140;2022-10-01T02:32:17;1.48;;;1.20;;
19505;SDS011;9894;50.852;-0.140;2022-10-01T02:34:44;1.90;;;1.25;;
19505;SDS011;9894;50.852;-0.140;2022-10-01T02:37:12;1.35;;;1.13;;
19505;SDS011;9894;50.852;-0.140;2022-10-01T02:39:39;2.70;;;0.88;;
19505;SDS011;9894;50.852;-0.140;2022-10-01T02:42:06;5.25;;;1.83;;
19505;SDS011;9894;50.852;-0.140;2022-10-01T02:44:33;0.20;;;0.20;;
19505;SDS011;9894;50.852;-0.140;2022-10-01T02:47:11;0.68;;;0.60;;
19505;SDS011;9894;50.852;-0.140;2022-10-01T02:49:39;1.00;;;0.90;;
19505;SDS011;9894;50.852;-0.140;2022-10-01T02:52:07;3.45;;;1.90;;
19505;SDS011;9894;50.852;-0.140;2022-10-01T02:54:36;1.75;;;0.82;;
19505;SDS011;9894;50.852;-0.140;2022-10-01T02:57:04;0.65;;;0.65;;
19505;SDS011;9894;50.852;-0.140;2022-10-01T03:02:17;0.43;;;0.43;;
19505;SDS011;9894;50.852;-0.140;2022-10-01T03:04:44;22.77;;;2.60;;
19505;SDS011;9894;50.852;-0.140;2022-10-01T03:07:12;2.95;;;1.70;;
19505;SDS011;9894;50.852;-0.140;2022-10-01T03:09:39;3.40;;;1.30;;
19505;SDS011;9894;50.852;-0.140;2022-10-01T03:12:05;1.75;;;1.27;;
19505;SDS011;9894;50.852;-0.140;2022-10-01T03:14:31;0.35;;;0.17;;
19505;SDS011;9894;50.852;-0.140;2022-10-01T03:16:58;0.88;;;0.68;;
19505;SDS011;9894;50.852;-0.140;2022-10-01T03:19:24;0.77;;;0.70;;
19505;SDS011;9894;50.852;-0.140;2022-10-01T03:21:50;0.77;;;0.55;;
19505;SDS011;9894;50.852;-0.140;2022-10-01T03:24:16;1.25;;;0.88;;
19505;SDS011;9894;50.852;-0.140;2022-10-01T03:26:42;1.00;;;0.50;;
19505;SDS011;9894;50.852;-0.140;2022-10-01T03:29:09;0.22;;;0.22;;
19505;SDS011;9894;50.852;-0.140;2022-10-01T03:31:37;1.17;;;1.05;;
19505;SDS011;9894;50.852;-0.140;2022-10-01T03:34:03;0.73;;;0.73;;
19505;SDS011;9894;50.852;-0.140;2022-10-01T03:36:29;0.73;;;0.68;;
19505;SDS011;9894;50.852;-0.140;2022-10-01T03:38:55;5.25;;;0.98;;
19505;SDS011;9894;50.852;-0.140;2022-10-01T03:41:22;3.30;;;0.95;;
19505;SDS011;9894;50.852;-0.140;2022-10-01T03:43:48;3.20;;;2.05;;
19505;SDS011;9894;50.852;-0.140;2022-10-01T03:46:14;4.57;;;2.65;;
19505;SDS011;9894;50.852;-0.140;2022-10-01T03:48:41;0.20;;;0.20;;
19505;SDS011;9894;50.852;-0.140;2022-10-01T03:51:07;2.97;;;1.40;;
19505;SDS011;9894;50.852;-0.140;2022-10-01T03:53:34;1.75;;;1.10;;
19505;SDS011;9894;50.852;-0.140;2022-10-01T03:56:00;0.77;;;0.77;;
19505;SDS011;9894;50.852;-0.140;2022-10-01T03:58:26;0.68;;;0.60;;
19505;SDS011;9894;50.852;-0.140;2022-10-01T04:00:53;0.98;;;0.75;;
19505;SDS011;9894;50.852;-0.140;2022-10-01T04:03:20;1.75;;;1.40;;
19505;SDS011;9894;50.852;-0.140;2022-10-01T04:05:46;8.45;;;2.10;;
19505;SDS011;9894;50.852;-0.140;2022-10-01T04:08:12;0.32;;;0.32;;
19505;SDS011;9894;50.852;-0.140;2022-10-01T04:10:39;1.52;;;1.42;;
19505;SDS011;9894;50.852;-0.140;2022-10-01T04:13:06;2.55;;;1.73;;
19505;SDS011;9894;50.852;-0.140;2022-10-01T04:15:32;12.80;;;1.95;;
19505;SDS011;9894;50.852;-0.140;2022-10-01T04:17:58;2.60;;;1.52;;
19505;SDS011;9894;50.852;-0.140;2022-10-01T04:20:25;3.63;;;1.52;;
19505;SDS011;9894;50.852;-0.140;2022-10-01T04:22:51;0.85;;;0.85;;
19505;SDS011;9894;50.852;-0.140;2022-10-01T04:25:18;1.45;;;1.05;;
19505;SDS011;9894;50.852;-0.140;2022-10-01T04:27:55;1.65;;;1.42;;
19505;SDS011;9894;50.852;-0.140;2022-10-01T04:30:21;3.78;;;1.75;;
19505;SDS011;9894;50.852;-0.140;2022-10-01T04:32:48;3.03;;;1.15;;
19505;SDS011;9894;50.852;-0.140;2022-10-01T04:35:14;2.55;;;1.13;;
19505;SDS011;9894;50.852;-0.140;2022-10-01T04:37:40;12.80;;;1.30;;
19505;SDS011;9894;50.852;-0.140;2022-10-01T04:40:06;1.13;;;1.00;;
19505;SDS011;9894;50.852;-0.140;2022-10-01T04:42:37;1.30;;;0.80;;
19505;SDS011;9894;50.852;-0.140;2022-10-01T04:45:04;17.23;;;2.58;;
19505;SDS011;9894;50.852;-0.140;2022-10-01T04:47:30;0.52;;;0.52;;
19505;SDS011;9894;50.852;-0.140;2022-10-01T04:49:56;3.03;;;1.38;;
19505;SDS011;9894;50.852;-0.140;2022-10-01T04:52:22;1.08;;;0.73;;
19505;SDS011;9894;50.852;-0.140;2022-10-01T04:54:48;5.53;;;2.60;;
19505;SDS011;9894;50.852;-0.140;2022-10-01T04:57:16;1.08;;;0.98;;
19505;SDS011;9894;50.852;-0.140;2022-10-01T04:59:46;1.17;;;0.95;;
19505;SDS011;9894;50.852;-0.140;2022-10-01T05:02:12;20.90;;;2.50;;
19505;SDS011;9894;50.852;-0.140;2022-10-01T05:04:38;9.77;;;2.55;;
19505;SDS011;9894;50.852;-0.140;2022-10-01T05:07:05;0.68;;;0.47;;
19505;SDS011;9894;50.852;-0.140;2022-10-01T05:09:31;13.30;;;1.17;;
19505;SDS011;9894;50.852;-0.140;2022-10-01T05:11:57;1.30;;;0.82;;
19505;SDS011;9894;50.852;-0.140;2022-10-01T05:14:23;0.22;;;0.22;;
19505;SDS011;9894;50.852;-0.140;2022-10-01T05:16:50;0.47;;;0.47;;
19505;SDS011;9894;50.852;-0.140;2022-10-01T05:19:16;0.35;;;0.35;;
19505;SDS011;9894;50.852;-0.140;2022-10-01T05:21:43;6.25;;;0.85;;
19505;SDS011;9894;50.852;-0.140;2022-10-01T05:24:09;8.88;;;0.85;;
19505;SDS011;9894;50.852;-0.140;2022-10-01T05:26:36;0.40;;;0.40;;
19505;SDS011;9894;50.852;-0.140;2022-10-01T05:29:03;17.08;;;1.02;;
19505;SDS011;9894;50.852;-0.140;2022-10-01T05:31:31;2.47;;;1.30;;
19505;SDS011;9894;50.852;-0.140;2022-10-01T05:33:58;1.00;;;0.95;;
19505;SDS011;9894;50.852;-0.140;2022-10-01T05:36:24;2.40;;;1.38;;
19505;SDS011;9894;50.852;-0.140;2022-10-01T05:38:50;2.08;;;1.05;;
19505;SDS011;9894;50.852;-0.140;2022-10-01T05:41:17;7.47;;;1.05;;
19505;SDS011;9894;50.852;-0.140;2022-10-01T05:43:46;1.35;;;1.25;;
19505;SDS011;9894;50.852;-0.140;2022-10-01T05:46:12;7.38;;;2.55;;
19505;SDS011;9894;50.852;-0.140;2022-10-01T05:48:38;1.65;;;0.75;;
19505;SDS011;9894;50.852;-0.140;2022-10-01T05:51:05;0.93;;;0.85;;
19505;SDS011;9894;50.852;-0.140;2022-10-01T05:53:33;3.33;;;1.88;;
19505;SDS011;9894;50.852;-0.140;2022-10-01T05:56:02;1.73;;;1.38;;
19505;SDS011;9894;50.852;-0.140;2022-10-01T05:58:28;0.10;;;0.10;;
19505;SDS011;9894;50.852;-0.140;2022-10-01T06:00:54;1.20;;;0.93;;
19505;SDS011;9894;50.852;-0.140;2022-10-01T06:03:21;1.33;;;1.10;;
19505;SDS011;9894;50.852;-0.140;2022-10-01T06:05:50;6.72;;;1.50;;
19505;SDS011;9894;50.852;-0.140;2022-10-01T06:08:18;0.55;;;0.45;;
19505;SDS011;9894;50.852;-0.140;2022-10-01T06:10:44;1.23;;;0.77;;
19505;SDS011;9894;50.852;-0.140;2022-10-01T06:13:11;2.10;;;1.58;;
19505;SDS011;9894;50.852;-0.140;2022-10-01T06:15:42;6.45;;;2.13;;
19505;SDS011;9894;50.852;-0.140;2022-10-01T06:18:10;4.88;;;1.50;;
19505;SDS011;9894;50.852;-0.140;2022-10-01T06:20:36;1.58;;;1.25;;
19505;SDS011;9894;50.852;-0.140;2022-10-01T06:23:03;1.05;;;0.98;;
19505;SDS011;9894;50.852;-0.140;2022-10-01T06:25:32;2.83;;;1.42;;
19505;SDS011;9894;50.852;-0.140;2022-10-01T06:27:59;0.75;;;0.75;;
19505;SDS011;9894;50.852;-0.140;2022-10-01T06:30:27;1.85;;;1.13;;
19505;SDS011;9894;50.852;-0.140;2022-10-01T06:33:00;11.57;;;0.75;;
19505;SDS011;9894;50.852;-0.140;2022-10-01T06:35:32;1.55;;;0.93;;
19505;SDS011;9894;50.852;-0.140;2022-10-01T06:37:59;2.65;;;1.42;;
19505;SDS011;9894;50.852;-0.140;2022-10-01T06:40:30;3.50;;;1.25;;
19505;SDS011;9894;50.852;-0.140;2022-10-01T06:42:56;6.47;;;2.13;;
19505;SDS011;9894;50.852;-0.140;2022-10-01T06:45:23;1.25;;;1.15;;
19505;SDS011;9894;50.852;-0.140;2022-10-01T06:47:53;3.60;;;2.10;;
19505;SDS011;9894;50.852;-0.140;2022-10-01T06:50:20;4.70;;;1.65;;
19505;SDS011;9894;50.852;-0.140;2022-10-01T06:52:46;0.88;;;0.88;;
19505;SDS011;9894;50.852;-0.140;2022-10-01T06:55:19;16.67;;;2.88;;
19505;SDS011;9894;50.852;-0.140;2022-10-01T06:57:46;0.88;;;0.75;;
19505;SDS011;9894;50.852;-0.140;2022-10-01T07:00:14;2.17;;;0.65;;
19505;SDS011;9894;50.852;-0.140;2022-10-01T07:02:40;15.48;;;2.00;;
19505;SDS011;9894;50.852;-0.140;2022-10-01T07:05:07;1.65;;;1.17;;
19505;SDS011;9894;50.852;-0.140;2022-10-01T07:07:36;2.10;;;1.65;;
19505;SDS011;9894;50.852;-0.140;2022-10-01T07:10:03;0.57;;;0.43;;
19505;SDS011;9894;50.852;-0.140;2022-10-01T07:12:31;0.10;;;0.10;;
19505;SDS011;9894;50.852;-0.140;2022-10-01T07:14:58;4.18;;;1.67;;
19505;SDS011;9894;50.852;-0.140;2022-10-01T07:17:24;0.30;;;0.30;;
19505;SDS011;9894;50.852;-0.140;2022-10-01T07:19:50;6.35;;;1.42;;
19505;SDS011;9894;50.852;-0.140;2022-10-01T07:22:17;8.07;;;1.48;;
19505;SDS011;9894;50.852;-0.140;2022-10-01T07:24:44;0.85;;;0.75;;
19505;SDS011;9894;50.852;-0.140;2022-10-01T07:27:10;1.10;;;0.88;;
19505;SDS011;9894;50.852;-0.140;2022-10-01T07:29:37;4.13;;;1.75;;
19505;SDS011;9894;50.852;-0.140;2022-10-01T07:32:03;1.65;;;1.40;;
19505;SDS011;9894;50.852;-0.140;2022-10-01T07:34:33;0.60;;;0.60;;
19505;SDS011;9894;50.852;-0.140;2022-10-01T07:37:00;0.43;;;0.43;;
19505;SDS011;9894;50.852;-0.140;2022-10-01T07:39:26;0.32;;;0.32;;
19505;SDS011;9894;50.852;-0.140;2022-10-01T07:41:52;0.47;;;0.47;;
19505;SDS011;9894;50.852;-0.140;2022-10-01T07:44:20;11.43;;;1.08;;
19505;SDS011;9894;50.852;-0.140;2022-10-01T07:46:47;1.20;;;1.10;;
19505;SDS011;9894;50.852;-0.140;2022-10-01T07:49:13;5.53;;;2.13;;
19505;SDS011;9894;50.852;-0.140;2022-10-01T07:51:41;3.40;;;1.30;;
19505;SDS011;9894;50.852;-0.140;2022-10-01T07:54:08;2.97;;;1.00;;
19505;SDS011;9894;50.852;-0.140;2022-10-01T07:56:34;0.30;;;0.30;;
19505;SDS011;9894;50.852;-0.140;2022-10-01T07:59:01;1.42;;;1.25;;
19505;SDS011;9894;50.852;-0.140;2022-10-01T08:01:27;7.75;;;1.92;;
19505;SDS011;9894;50.852;-0.140;2022-10-01T08:03:55;10.63;;;1.20;;
19505;SDS011;9894;50.852;-0.140;2022-10-01T08:06:22;0.38;;;0.38;;
19505;SDS011;9894;50.852;-0.140;2022-10-01T08:08:49;0.77;;;0.73;;
19505;SDS011;9894;50.852;-0.140;2022-10-01T08:11:15;0.30;;;0.30;;
19505;SDS011;9894;50.852;-0.140;2022-10-01T08:13:45;10.82;;;2.22;;
19505;SDS011;9894;50.852;-0.140;2022-10-01T08:16:12;5.43;;;2.08;;
19505;SDS011;9894;50.852;-0.140;2022-10-01T08:18:38;0.43;;;0.43;;
19505;SDS011;9894;50.852;-0.140;2022-10-01T08:21:07;3.92;;;2.28;;
19505;SDS011;9894;50.852;-0.140;2022-10-01T08:23:34;21.23;;;1.85;;
19505;SDS011;9894;50.852;-0.140;2022-10-01T08:26:02;8.02;;;0.65;;
19505;SDS011;9894;50.852;-0.140;2022-10-01T08:28:28;1.23;;;1.13;;
19505;SDS011;9894;50.852;-0.140;2022-10-01T08:30:55;2.17;;;1.08;;
19505;SDS011;9894;50.852;-0.140;2022-10-01T08:33:21;1.17;;;0.98;;
19505;SDS011;9894;50.852;-0.140;2022-10-01T08:35:48;2.17;;;1.38;;
19505;SDS011;9894;50.852;-0.140;2022-10-01T08:38:14;0.70;;;0.70;;
19505;SDS011;9894;50.852;-0.140;2022-10-01T08:40:48;0.40;;;0.35;;
19505;SDS011;9894;50.852;-0.140;2022-10-01T08:45:52;0.73;;;0.73;;
19505;SDS011;9894;50.852;-0.140;2022-10-01T08:50:51;22.70;;;2.38;;
19505;SDS011;9894;50.852;-0.140;2022-10-01T08:53:24;9.45;;;0.85;;
19505;SDS011;9894;50.852;-0.140;2022-10-01T08:55:53;1.70;;;0.82;;
19505;SDS011;9894;50.852;-0.140;2022-10-01T08:58:22;1.00;;;0.52;;
19505;SDS011;9894;50.852;-0.140;2022-10-01T09:00:51;1.40;;;1.08;;
19505;SDS011;9894;50.852;-0.140;2022-10-01T09:03:17;0.55;;;0.55;;
19505;SDS011;9894;50.852;-0.140;2022-10-01T09:08:26;0.40;;;0.40;;
19505;SDS011;9894;50.852;-0.140;2022-10-01T09:16:31;0.47;;;0.47;;
19505;SDS011;9894;50.852;-0.140;2022-10-01T09:19:03;0.30;;;0.30;;
19505;SDS011;9894;50.852;-0.140;2022-10-01T09:21:42;1.10;;;1.00;;
19505;SDS011;9894;50.852;-0.140;2022-10-01T09:24:13;2.15;;;1.30;;
19505;SDS011;9894;50.852;-0.140;2022-10-01T09:26:44;0.88;;;0.88;;
19505;SDS011;9894;50.852;-0.140;2022-10-01T09:29:22;1.13;;;0.98;;
19505;SDS011;9894;50.852;-0.140;2022-10-01T09:31:50;0.77;;;0.77;;
19505;SDS011;9894;50.852;-0.140;2022-10-01T09:34:29;4.95;;;2.42;;
19505;SDS011;9894;50.852;-0.140;2022-10-01T09:37:07;1.80;;;1.38;;
19505;SDS011;9894;50.852;-0.140;2022-10-01T09:39:55;1.02;;;0.95;;
19505;SDS011;9894;50.852;-0.140;2022-10-01T09:42:23;1.95;;;1.65;;
19505;SDS011;9894;50.852;-0.140;2022-10-01T09:44:51;3.05;;;1.85;;
19505;SDS011;9894;50.852;-0.140;2022-10-01T09:47:19;1.23;;;0.65;;
19505;SDS011;9894;50.852;-0.140;2022-10-01T09:49:46;4.50;;;1.85;;
19505;SDS011;9894;50.852;-0.140;2022-10-01T09:52:25;0.52;;;0.52;;
19505;SDS011;9894;50.852;-0.140;2022-10-01T09:54:55;0.63;;;0.63;;
19505;SDS011;9894;50.852;-0.140;2022-10-01T09:57:40;1.08;;;0.57;;
19505;SDS011;9894;50.852;-0.140;2022-10-01T10:00:13;1.65;;;1.52;;
19505;SDS011;9894;50.852;-0.140;2022-10-01T10:02:42;0.70;;;0.70;;
19505;SDS011;9894;50.852;-0.140;2022-10-01T10:05:18;5.95;;;1.05;;
19505;SDS011;9894;50.852;-0.140;2022-10-01T10:07:49;1.05;;;0.90;;
19505;SDS011;9894;50.852;-0.140;2022-10-01T10:12:53;1.05;;;0.95;;
19505;SDS011;9894;50.852;-0.140;2022-10-01T10:15:21;7.63;;;1.15;;
19505;SDS011;9894;50.852;-0.140;2022-10-01T10:17:50;20.30;;;3.17;;
19505;SDS011;9894;50.852;-0.140;2022-10-01T10:20:25;23.38;;;3.50;;
19505;SDS011;9894;50.852;-0.140;2022-10-01T10:22:53;22.98;;;3.00;;
19505;SDS011;9894;50.852;-0.140;2022-10-01T10:25:21;17.00;;;3.53;;
19505;SDS011;9894;50.852;-0.140;2022-10-01T10:27:49;24.58;;;3.10;;
19505;SDS011;9894;50.852;-0.140;2022-10-01T10:30:19;17.88;;;3.05;;
19505;SDS011;9894;50.852;-0.140;2022-10-01T10:32:47;18.35;;;3.50;;
19505;SDS011;9894;50.852;-0.140;2022-10-01T10:35:15;18.48;;;3.13;;
19505;SDS011;9894;50.852;-0.140;2022-10-01T10:37:47;18.73;;;3.13;;
19505;SDS011;9894;50.852;-0.140;2022-10-01T10:40:18;12.63;;;2.58;;
19505;SDS011;9894;50.852;-0.140;2022-10-01T10:42:46;15.48;;;2.70;;
19505;SDS011;9894;50.852;-0.140;2022-10-01T10:45:16;23.35;;;3.30;;
19505;SDS011;9894;50.852;-0.140;2022-10-01T10:47:53;21.73;;;2.95;;
19505;SDS011;9894;50.852;-0.140;2022-10-01T10:50:36;19.13;;;3.13;;
19505;SDS011;9894;50.852;-0.140;2022-10-01T10:53:22;15.68;;;2.70;;
19505;SDS011;9894;50.852;-0.140;2022-10-01T10:55:56;17.35;;;3.33;;
19505;SDS011;9894;50.852;-0.140;2022-10-01T10:58:29;18.70;;;3.25;;
19505;SDS011;9894;50.852;-0.140;2022-10-01T11:00:58;14.52;;;3.17;;
19505;SDS011;9894;50.852;-0.140;2022-10-01T11:03:26;14.73;;;2.78;;
19505;SDS011;9894;50.852;-0.140;2022-10-01T11:05:53;19.80;;;4.07;;
19505;SDS011;9894;50.852;-0.140;2022-10-01T11:08:22;13.30;;;3.08;;
19505;SDS011;9894;50.852;-0.140;2022-10-01T11:13:50;16.70;;;5.28;;
19505;SDS011;9894;50.852;-0.140;2022-10-01T11:32:59;24.70;;;11.82;;
19505;SDS011;9894;50.852;-0.140;2022-10-01T11:35:38;18.25;;;10.82;;
19505;SDS011;9894;50.852;-0.140;2022-10-01T11:38:23;19.05;;;11.23;;
19505;SDS011;9894;50.852;-0.140;2022-10-01T11:40:58;20.70;;;11.88;;
19505;SDS011;9894;50.852;-0.140;2022-10-01T11:43:30;22.60;;;11.30;;
19505;SDS011;9894;50.852;-0.140;2022-10-01T11:46:07;17.00;;;10.70;;
19505;SDS011;9894;50.852;-0.140;2022-10-01T11:48:51;23.35;;;10.40;;
19505;SDS011;9894;50.852;-0.140;2022-10-01T11:51:30;18.55;;;10.15;;
19505;SDS011;9894;50.852;-0.140;2022-10-01T11:53:58;19.73;;;10.32;;
19505;SDS011;9894;50.852;-0.140;2022-10-01T11:56:27;24.52;;;9.73;;
19505;SDS011;9894;50.852;-0.140;2022-10-01T12:05:00;16.63;;;9.63;;
19505;SDS011;9894;50.852;-0.140;2022-10-01T12:13:17;20.42;;;9.40;;
19505;SDS011;9894;50.852;-0.140;2022-10-01T12:15:48;19.38;;;9.65;;
19505;SDS011;9894;50.852;-0.140;2022-10-01T12:18:17;23.88;;;9.95;;
19505;SDS011;9894;50.852;-0.140;2022-10-01T12:20:47;22.52;;;10.00;;
19505;SDS011;9894;50.852;-0.140;2022-10-01T12:23:21;18.50;;;8.57;;
19505;SDS011;9894;50.852;-0.140;2022-10-01T12:25:52;23.85;;;8.05;;
19505;SDS011;9894;50.852;-0.140;2022-10-01T12:28:26;24.13;;;8.48;;
19505;SDS011;9894;50.852;-0.140;2022-10-01T12:31:12;24.17;;;9.32;;
19505;SDS011;9894;50.852;-0.140;2022-10-01T12:36:16;18.13;;;7.25;;
19505;SDS011;9894;50.852;-0.140;2022-10-01T12:43:45;22.65;;;7.90;;
19505;SDS011;9894;50.852;-0.140;2022-10-01T12:46:30;19.83;;;7.35;;
19505;SDS011;9894;50.852;-0.140;2022-10-01T12:51:47;29.65;;;6.97;;
19505;SDS011;9894;50.852;-0.140;2022-10-01T12:57:02;22.42;;;5.15;;
19505;SDS011;9894;50.852;-0.140;2022-10-01T13:02:03;26.48;;;7.85;;
19505;SDS011;9894;50.852;-0.140;2022-10-01T13:07:27;25.60;;;9.00;;
19505;SDS011;9894;50.852;-0.140;2022-10-01T13:12:44;23.65;;;9.88;;
19505;SDS011;9894;50.852;-0.140;2022-10-01T13:15:19;20.85;;;9.30;;
19505;SDS011;9894;50.852;-0.140;2022-10-01T13:17:53;19.77;;;8.73;;
19505;SDS011;9894;50.852;-0.140;2022-10-01T13:23:05;27.88;;;9.75;;
19505;SDS011;9894;50.852;-0.140;2022-10-01T13:25:45;23.88;;;9.07;;
19505;SDS011;9894;50.852;-0.140;2022-10-01T13:28:22;24.08;;;8.60;;
19505;SDS011;9894;50.852;-0.140;2022-10-01T13:31:00;21.40;;;9.05;;
19505;SDS011;9894;50.852;-0.140;2022-10-01T13:33:34;26.52;;;8.75;;
19505;SDS011;9894;50.852;-0.140;2022-10-01T13:36:03;31.10;;;10.20;;
19505;SDS011;9894;50.852;-0.140;2022-10-01T13:38:43;19.45;;;8.68;;
19505;SDS011;9894;50.852;-0.140;2022-10-01T13:43:50;20.33;;;8.40;;
19505;SDS011;9894;50.852;-0.140;2022-10-01T13:46:21;27.02;;;8.70;;
19505;SDS011;9894;50.852;-0.140;2022-10-01T13:48:48;19.63;;;7.90;;
19505;SDS011;9894;50.852;-0.140;2022-10-01T13:51:15;20.55;;;7.53;;
19505;SDS011;9894;50.852;-0.140;2022-10-01T13:56:24;22.38;;;7.35;;
19505;SDS011;9894;50.852;-0.140;2022-10-01T13:58:52;24.20;;;7.38;;
19505;SDS011;9894;50.852;-0.140;2022-10-01T14:08:50;21.98;;;4.55;;
19505;SDS011;9894;50.852;-0.140;2022-10-01T14:11:24;20.92;;;4.60;;
19505;SDS011;9894;50.852;-0.140;2022-10-01T14:14:30;20.17;;;4.30;;
19505;SDS011;9894;50.852;-0.140;2022-10-01T14:17:23;22.08;;;8.60;;
19505;SDS011;9894;50.852;-0.140;2022-10-01T14:19:53;26.73;;;8.73;;
19505;SDS011;9894;50.852;-0.140;2022-10-01T14:25:07;20.58;;;6.80;;
19505;SDS011;9894;50.852;-0.140;2022-10-01T14:27:44;24.77;;;6.25;;
19505;SDS011;9894;50.852;-0.140;2022-10-01T14:30:14;20.80;;;6.50;;
19505;SDS011;9894;50.852;-0.140;2022-10-01T14:37:50;21.23;;;4.78;;
19505;SDS011;9894;50.852;-0.140;2022-10-01T14:40:17;18.35;;;6.20;;
19505;SDS011;9894;50.852;-0.140;2022-10-01T14:43:00;19.10;;;9.10;;
19505;SDS011;9894;50.852;-0.140;2022-10-01T14:45:27;23.02;;;8.40;;
19505;SDS011;9894;50.852;-0.140;2022-10-01T14:48:01;21.67;;;9.52;;
19505;SDS011;9894;50.852;-0.140;2022-10-01T14:50:28;18.48;;;9.48;;
19505;SDS011;9894;50.852;-0.140;2022-10-01T14:52:56;20.58;;;8.85;;
19505;SDS011;9894;50.852;-0.140;2022-10-01T14:55:23;23.13;;;8.57;;
19505;SDS011;9894;50.852;-0.140;2022-10-01T14:57:51;21.67;;;7.90;;
19505;SDS011;9894;50.852;-0.140;2022-10-01T15:00:20;24.27;;;9.50;;
19505;SDS011;9894;50.852;-0.140;2022-10-01T15:02:48;20.63;;;8.60;;
19505;SDS011;9894;50.852;-0.140;2022-10-01T15:05:25;18.75;;;9.10;;
19505;SDS011;9894;50.852;-0.140;2022-10-01T15:07:52;23.92;;;11.25;;
19505;SDS011;9894;50.852;-0.140;2022-10-01T15:10:20;20.63;;;10.60;;
19505;SDS011;9894;50.852;-0.140;2022-10-01T15:12:48;17.38;;;8.43;;
19505;SDS011;9894;50.852;-0.140;2022-10-01T15:15:16;17.23;;;6.55;;
19505;SDS011;9894;50.852;-0.140;2022-10-01T15:17:43;19.17;;;6.40;;
19505;SDS011;9894;50.852;-0.140;2022-10-01T15:20:10;17.15;;;5.70;;
19505;SDS011;9894;50.852;-0.140;2022-10-01T15:22:37;16.80;;;5.25;;
19505;SDS011;9894;50.852;-0.140;2022-10-01T15:25:04;21.10;;;4.55;;
19505;SDS011;9894;50.852;-0.140;2022-10-01T15:27:31;19.00;;;4.88;;
19505;SDS011;9894;50.852;-0.140;2022-10-01T15:29:58;17.23;;;5.03;;
19505;SDS011;9894;50.852;-0.140;2022-10-01T15:32:25;27.08;;;6.95;;
19505;SDS011;9894;50.852;-0.140;2022-10-01T15:34:53;23.92;;;6.85;;
19505;SDS011;9894;50.852;-0.140;2022-10-01T15:37:21;25.15;;;6.40;;
19505;SDS011;9894;50.852;-0.140;2022-10-01T15:39:49;19.13;;;4.82;;
19505;SDS011;9894;50.852;-0.140;2022-10-01T15:42:20;22.13;;;4.93;;
19505;SDS011;9894;50.852;-0.140;2022-10-01T15:44:50;18.33;;;4.53;;
19505;SDS011;9894;50.852;-0.140;2022-10-01T15:47:25;24.63;;;4.95;;
19505;SDS011;9894;50.852;-0.140;2022-10-01T15:55:35;25.80;;;4.00;;
19505;SDS011;9894;50.852;-0.140;2022-10-01T15:58:05;23.95;;;3.72;;
19505;SDS011;9894;50.852;-0.140;2022-10-01T16:03:20;24.45;;;4.30;;
19505;SDS011;9894;50.852;-0.140;2022-10-01T16:05:48;19.92;;;3.83;;
19505;SDS011;9894;50.852;-0.140;2022-10-01T16:08:16;21.85;;;4.07;;
19505;SDS011;9894;50.852;-0.140;2022-10-01T16:10:46;21.17;;;3.78;;
19505;SDS011;9894;50.852;-0.140;2022-10-01T16:18:40;17.08;;;2.88;;
19505;SDS011;9894;50.852;-0.140;2022-10-01T16:21:07;26.50;;;3.83;;
19505;SDS011;9894;50.852;-0.140;2022-10-01T16:23:35;23.00;;;3.80;;
19505;SDS011;9894;50.852;-0.140;2022-10-01T16:26:02;22.02;;;3.40;;
19505;SDS011;9894;50.852;-0.140;2022-10-01T16:28:30;20.50;;;3.53;;
19505;SDS011;9894;50.852;-0.140;2022-10-01T16:30:57;17.73;;;3.65;;
19505;SDS011;9894;50.852;-0.140;2022-10-01T16:33:24;16.70;;;3.30;;
19505;SDS011;9894;50.852;-0.140;2022-10-01T16:36:15;17.85;;;4.03;;
19505;SDS011;9894;50.852;-0.140;2022-10-01T16:38:42;15.52;;;4.05;;
19505;SDS011;9894;50.852;-0.140;2022-10-01T16:41:09;18.92;;;4.60;;
19505;SDS011;9894;50.852;-0.140;2022-10-01T16:43:35;16.58;;;4.10;;
19505;SDS011;9894;50.852;-0.140;2022-10-01T16:46:03;18.70;;;4.88;;
19505;SDS011;9894;50.852;-0.140;2022-10-01T16:48:29;15.20;;;4.60;;
19505;SDS011;9894;50.852;-0.140;2022-10-01T16:50:55;24.63;;;4.60;;
19505;SDS011;9894;50.852;-0.140;2022-10-01T16:53:23;16.13;;;5.10;;
19505;SDS011;9894;50.852;-0.140;2022-10-01T16:55:50;18.05;;;4.70;;
19505;SDS011;9894;50.852;-0.140;2022-10-01T16:58:17;18.13;;;4.85;;
19505;SDS011;9894;50.852;-0.140;2022-10-01T17:00:44;21.98;;;4.28;;
19505;SDS011;9894;50.852;-0.140;2022-10-01T17:03:13;14.98;;;4.15;;
19505;SDS011;9894;50.852;-0.140;2022-10-01T17:05:39;17.60;;;4.65;;
19505;SDS011;9894;50.852;-0.140;2022-10-01T17:08:06;18.85;;;4.60;;
19505;SDS011;9894;50.852;-0.140;2022-10-01T17:10:40;20.98;;;4.45;;
19505;SDS011;9894;50.852;-0.140;2022-10-01T17:13:08;24.00;;;4.15;;
19505;SDS011;9894;50.852;-0.140;2022-10-01T17:15:38;27.23;;;3.75;;